createdAt,value
2023-05-22T00:00:10.606Z,90.33
2023-05-22T00:03:13.115Z,91.03
2023-05-22T00:06:18.442Z,91.37
2023-05-22T00:09:20.922Z,91.56
2023-05-22T00:12:23.836Z,91.68
2023-05-22T00:15:26.420Z,91.45
2023-05-22T00:18:29.297Z,91.02
2023-05-22T00:21:35.123Z,91.74
2023-05-22T00:24:38.791Z,92.61
2023-05-22T00:27:41.401Z,93.05
2023-05-22T00:30:44.397Z,92.91
2023-05-22T00:33:46.936Z,93.22
2023-05-22T00:36:49.849Z,93.61
2023-05-22T00:39:52.479Z,93.97
2023-05-22T00:42:55.501Z,94.25
2023-05-22T00:45:58.021Z,95.03
2023-05-22T00:49:02.241Z,95.83
2023-05-22T00:52:05.151Z,95.83
2023-05-22T00:55:09.017Z,95.23
2023-05-22T00:58:15.241Z,95.00
2023-05-22T01:01:18.259Z,95.18
2023-05-22T01:04:21.306Z,96.19
2023-05-22T01:07:24.725Z,96.27
2023-05-22T01:10:28.480Z,96.40
2023-05-22T01:13:55.487Z,95.63
2023-05-22T01:17:28.937Z,95.17
2023-05-22T01:20:39.310Z,94.60
2023-05-22T01:23:54.292Z,94.28
2023-05-22T01:27:15.898Z,94.54
2023-05-22T01:30:56.202Z,94.49
2023-05-22T01:34:01.306Z,92.36
2023-05-22T01:37:05.018Z,91.95
2023-05-22T01:40:08.566Z,93.27
2023-05-22T01:43:15.042Z,94.22
2023-05-22T01:46:18.132Z,93.69
2023-05-22T01:49:20.892Z,93.27
2023-05-22T01:52:38.239Z,93.10
2023-05-22T01:55:48.260Z,92.29
2023-05-22T01:59:06.714Z,91.44
2023-05-22T02:02:11.205Z,91.53
2023-05-22T02:05:18.434Z,91.20
2023-05-22T02:08:21.969Z,91.63
2023-05-22T02:11:27.076Z,91.80
2023-05-22T02:14:30.214Z,91.97
2023-05-22T02:17:40.407Z,93.23
2023-05-22T02:20:43.435Z,94.18
2023-05-22T02:23:46.312Z,93.19
2023-05-22T02:26:48.964Z,92.39
2023-05-22T02:29:53.039Z,91.96
2023-05-22T02:32:57.566Z,92.57
2023-05-22T02:36:00.514Z,91.95
2023-05-22T02:39:03.299Z,92.04
2023-05-22T02:42:06.622Z,90.65
2023-05-22T02:45:09.902Z,90.17
2023-05-22T02:48:13.272Z,90.62
2023-05-22T02:51:16.292Z,90.71
2023-05-22T02:54:19.176Z,90.93
2023-05-22T02:57:21.808Z,91.45
2023-05-22T03:00:25.039Z,91.39
2023-05-22T03:03:29.536Z,91.22
2023-05-22T03:06:32.708Z,91.28
2023-05-22T03:09:35.956Z,91.37
2023-05-22T03:12:39.044Z,91.87
2023-05-22T03:15:41.712Z,92.24
2023-05-22T03:18:45.076Z,92.61
2023-05-22T03:21:50.066Z,92.75
2023-05-22T03:24:53.555Z,93.21
2023-05-22T03:27:56.163Z,93.72
2023-05-22T03:31:01.164Z,93.96
2023-05-22T03:34:05.965Z,93.97
2023-05-22T03:37:09.404Z,93.69
2023-05-22T03:40:12.717Z,93.32
2023-05-22T03:43:15.587Z,93.52
2023-05-22T03:46:18.431Z,93.97
2023-05-22T03:49:21.462Z,94.62
2023-05-22T03:52:24.059Z,96.32
2023-05-22T03:55:26.963Z,96.31
2023-05-22T03:58:29.636Z,96.07
2023-05-22T04:01:32.615Z,96.33
2023-05-22T04:04:38.398Z,95.70
2023-05-22T04:07:41.371Z,94.18
2023-05-22T04:10:46.687Z,95.18
2023-05-22T04:13:50.179Z,96.30
2023-05-22T04:16:53.093Z,95.56
2023-05-22T04:19:58.179Z,94.83
2023-05-22T04:23:01.775Z,94.08
2023-05-22T04:26:04.334Z,94.68
2023-05-22T04:29:10.419Z,92.86
2023-05-22T04:32:18.443Z,91.56
2023-05-22T04:35:21.278Z,92.25
2023-05-22T04:38:26.407Z,92.01
2023-05-22T04:41:29.407Z,91.79
2023-05-22T04:44:34.509Z,92.56
2023-05-22T04:47:38.457Z,93.42
2023-05-22T04:50:41.623Z,94.16
2023-05-22T04:53:46.320Z,94.68
2023-05-22T04:56:50.083Z,94.66
2023-05-22T04:59:54.018Z,95.03
2023-05-22T05:02:58.122Z,92.29
2023-05-22T05:06:01.372Z,91.77
2023-05-22T05:09:04.864Z,91.40
2023-05-22T05:12:07.931Z,91.17
2023-05-22T05:15:11.325Z,91.49
2023-05-22T05:18:14.290Z,91.89
2023-05-22T05:21:18.522Z,91.96
2023-05-22T05:24:21.511Z,90.31
2023-05-22T05:27:24.727Z,87.50
2023-05-22T05:30:30.090Z,86.17
2023-05-22T05:33:33.639Z,85.51
2023-05-22T05:36:37.968Z,84.11
2023-05-22T05:39:40.874Z,86.57
2023-05-22T05:42:43.966Z,87.49
2023-05-22T05:45:47.183Z,89.58
2023-05-22T05:48:52.553Z,86.69
2023-05-22T05:51:55.525Z,84.97
2023-05-22T05:55:00.854Z,85.54
2023-05-22T05:58:03.730Z,86.17
2023-05-22T06:01:11.864Z,87.60
2023-05-22T06:04:15.058Z,88.84
2023-05-22T06:07:21.010Z,89.69
2023-05-22T06:10:25.046Z,88.43
2023-05-22T06:13:28.186Z,88.41
2023-05-22T06:16:31.456Z,89.23
2023-05-22T06:19:34.338Z,87.96
2023-05-22T06:22:37.527Z,87.27
2023-05-22T06:25:40.492Z,88.05
2023-05-22T06:28:44.206Z,88.00
2023-05-22T06:31:47.596Z,83.56
2023-05-22T06:34:52.030Z,86.84
2023-05-22T06:37:55.551Z,85.67
2023-05-22T06:40:58.893Z,82.43
2023-05-22T06:44:02.367Z,80.00
2023-05-22T06:47:05.964Z,83.52
2023-05-22T06:50:10.792Z,86.86
2023-05-22T06:53:13.845Z,84.49
2023-05-22T06:56:16.537Z,86.95
2023-05-22T06:59:20.669Z,84.38
2023-05-22T07:02:24.811Z,81.38
2023-05-22T07:05:28.929Z,81.02
2023-05-22T07:08:32.199Z,81.59
2023-05-22T07:11:36.010Z,77.20
2023-05-22T07:14:38.829Z,74.73
2023-05-22T07:17:41.924Z,75.53
2023-05-22T07:20:45.559Z,74.04
2023-05-22T07:23:48.750Z,71.92
2023-05-22T07:26:51.351Z,70.70
2023-05-22T07:29:54.654Z,71.01
2023-05-22T07:32:57.410Z,70.34
2023-05-22T07:36:01.049Z,68.33
2023-05-22T07:39:05.389Z,66.37
2023-05-22T07:42:08.824Z,66.43
2023-05-22T07:45:12.256Z,64.82
2023-05-22T07:48:16.012Z,62.22
2023-05-22T07:51:20.631Z,63.02
2023-05-22T07:54:25.290Z,62.01
2023-05-22T07:57:29.673Z,60.68
2023-05-22T08:00:35.917Z,62.02
2023-05-22T08:03:39.029Z,64.28
2023-05-22T08:06:43.854Z,62.73
2023-05-22T08:09:46.923Z,63.42
2023-05-22T08:12:49.565Z,62.78
2023-05-22T08:16:00.110Z,61.88
2023-05-22T08:19:03.721Z,59.37
2023-05-22T08:22:09.265Z,63.00
2023-05-22T08:25:11.790Z,58.87
2023-05-22T08:28:14.680Z,58.91
2023-05-22T08:31:17.258Z,57.71
2023-05-22T08:34:20.117Z,58.75
2023-05-22T08:37:22.711Z,59.68
2023-05-22T08:40:38.249Z,58.04
2023-05-22T08:43:41.732Z,57.78
2023-05-22T08:46:46.124Z,59.70
2023-05-22T08:49:51.714Z,57.08
2023-05-22T08:52:59.172Z,54.98
2023-05-22T08:56:03.676Z,54.20
2023-05-22T08:59:06.773Z,54.71
2023-05-22T09:02:09.963Z,54.93
2023-05-22T09:05:13.293Z,54.54
2023-05-22T09:08:20.918Z,53.68
2023-05-22T09:11:26.186Z,51.54
2023-05-22T09:14:28.725Z,51.87
2023-05-22T09:17:31.710Z,51.96
2023-05-22T09:20:39.193Z,53.17
2023-05-22T09:23:42.493Z,48.03
2023-05-22T09:26:45.003Z,44.56
2023-05-22T09:29:52.460Z,48.18
2023-05-22T09:32:55.256Z,46.67
2023-05-22T09:35:58.213Z,45.15
2023-05-22T09:39:01.856Z,47.01
2023-05-22T09:42:05.190Z,43.98
2023-05-22T09:45:08.846Z,45.17
2023-05-22T09:48:12.722Z,44.42
2023-05-22T09:51:16.577Z,45.18
2023-05-22T09:54:20.561Z,43.35
2023-05-22T09:57:26.447Z,46.51
2023-05-22T10:00:29.334Z,44.85
2023-05-22T10:03:33.765Z,42.95
2023-05-22T10:06:37.156Z,44.81
2023-05-22T10:09:40.981Z,43.23
2023-05-22T10:12:46.646Z,40.02
2023-05-22T10:15:50.318Z,39.52
2023-05-22T10:18:53.967Z,39.54
2023-05-22T10:21:58.307Z,43.10
2023-05-22T10:25:01.201Z,39.42
2023-05-22T10:28:04.219Z,39.02
2023-05-22T10:31:12.690Z,39.73
2023-05-22T10:34:31.470Z,38.68
2023-05-22T10:37:49.506Z,41.08
2023-05-22T10:40:52.869Z,37.68
2023-05-22T10:43:56.719Z,35.95
2023-05-22T10:47:10.314Z,37.80
2023-05-22T10:50:13.050Z,38.72
2023-05-22T10:53:22.296Z,38.78
2023-05-22T10:56:32.981Z,37.31
2023-05-22T10:59:35.888Z,38.32
2023-05-22T11:02:41.021Z,40.45
2023-05-22T11:05:52.684Z,37.99
2023-05-22T11:08:56.646Z,35.33
2023-05-22T11:12:21.472Z,35.70
2023-05-22T11:15:31.406Z,34.36
2023-05-22T11:18:34.570Z,34.60
2023-05-22T11:21:44.179Z,35.15
2023-05-22T11:24:47.142Z,36.45
2023-05-22T11:27:49.873Z,35.77
2023-05-22T11:30:54.127Z,34.93
2023-05-22T11:33:56.863Z,34.47
2023-05-22T11:37:00.208Z,36.90
2023-05-22T11:40:05.794Z,36.65
2023-05-22T11:43:08.770Z,35.13
2023-05-22T11:46:12.266Z,34.21
2023-05-22T11:49:15.276Z,37.69
2023-05-22T11:52:17.925Z,34.43
2023-05-22T11:55:20.804Z,35.11
2023-05-22T11:58:27.764Z,33.91
2023-05-22T12:01:30.919Z,34.77
2023-05-22T12:04:33.996Z,33.36
2023-05-22T12:07:36.604Z,36.72
2023-05-22T12:10:47.168Z,37.05
2023-05-22T12:13:52.134Z,35.20
2023-05-22T12:16:55.480Z,33.64
2023-05-22T12:19:58.130Z,35.94
2023-05-22T12:23:01.173Z,33.72
2023-05-22T12:26:10.148Z,34.56
2023-05-22T12:29:13.377Z,35.36
2023-05-22T12:32:18.317Z,34.40
2023-05-22T12:35:22.654Z,34.49
2023-05-22T12:38:26.750Z,34.50
2023-05-22T12:41:29.593Z,33.33
2023-05-22T12:44:32.153Z,33.81
2023-05-22T12:47:35.037Z,33.65
2023-05-22T12:50:37.959Z,34.82
2023-05-22T12:53:40.984Z,35.17
2023-05-22T12:56:43.526Z,35.33
2023-05-22T12:59:46.460Z,35.80
2023-05-22T13:02:49.295Z,35.54
2023-05-22T13:05:52.385Z,36.00
2023-05-22T13:08:55.019Z,37.07
2023-05-22T13:11:58.053Z,38.31
2023-05-22T13:15:01.241Z,37.17
2023-05-22T13:18:04.339Z,36.66
2023-05-22T13:21:06.976Z,38.48
2023-05-22T13:24:09.993Z,36.90
2023-05-22T13:27:12.569Z,36.15
2023-05-22T13:30:16.159Z,37.33
2023-05-22T13:33:18.755Z,37.15
2023-05-22T13:36:21.848Z,38.82
2023-05-22T13:39:24.495Z,41.19
2023-05-22T13:42:27.413Z,42.27
2023-05-22T13:45:31.033Z,40.39
2023-05-22T13:48:33.958Z,40.88
2023-05-22T13:51:36.595Z,41.01
2023-05-22T13:54:39.462Z,40.51
2023-05-22T13:57:42.160Z,40.77
2023-05-22T14:00:45.146Z,38.33
2023-05-22T14:03:48.002Z,41.15
2023-05-22T14:06:50.939Z,39.36
2023-05-22T14:09:53.839Z,38.79
2023-05-22T14:12:56.398Z,39.65
2023-05-22T14:15:59.265Z,39.29
2023-05-22T14:19:01.917Z,43.69
2023-05-22T14:22:05.022Z,45.33
2023-05-22T14:25:07.893Z,46.76
2023-05-22T14:28:14.191Z,45.63
2023-05-22T14:31:17.222Z,47.54
2023-05-22T14:34:20.631Z,45.05
2023-05-22T14:37:23.292Z,43.91
2023-05-22T14:40:26.081Z,45.01
2023-05-22T14:43:28.717Z,47.01
2023-05-22T14:46:31.654Z,45.57
2023-05-22T14:49:34.293Z,43.40
2023-05-22T14:52:37.446Z,43.80
2023-05-22T14:55:40.123Z,44.24
2023-05-22T14:58:43.292Z,45.50
2023-05-22T15:01:50.150Z,43.81
2023-05-22T15:04:53.228Z,44.46
2023-05-22T15:07:58.697Z,44.32
2023-05-22T15:11:01.531Z,43.66
2023-05-22T15:14:04.098Z,44.63
2023-05-22T15:17:07.031Z,48.17
2023-05-22T15:20:10.553Z,48.71
2023-05-22T15:23:13.769Z,48.36
2023-05-22T15:26:16.377Z,49.31
2023-05-22T15:29:19.241Z,49.26
2023-05-22T15:32:21.974Z,47.43
2023-05-22T15:35:25.368Z,52.35
2023-05-22T15:38:28.751Z,55.15
2023-05-22T15:41:31.769Z,55.22
2023-05-22T15:44:34.292Z,57.82
2023-05-22T15:47:37.232Z,58.37
2023-05-22T15:50:39.833Z,55.16
2023-05-22T15:53:42.774Z,55.37
2023-05-22T15:56:45.474Z,54.12
2023-05-22T15:59:50.675Z,56.14
2023-05-22T16:02:53.779Z,55.95
2023-05-22T16:05:56.675Z,60.13
2023-05-22T16:08:59.271Z,60.74
2023-05-22T16:12:02.969Z,60.44
2023-05-22T16:15:06.934Z,58.02
2023-05-22T16:18:11.237Z,57.18
2023-05-22T16:21:13.752Z,56.29
2023-05-22T16:24:16.678Z,57.27
2023-05-22T16:27:19.176Z,58.14
2023-05-22T16:30:22.249Z,58.99
2023-05-22T16:33:25.034Z,60.15
2023-05-22T16:36:28.037Z,61.03
2023-05-22T16:39:30.963Z,62.00
2023-05-22T16:42:35.297Z,61.01
2023-05-22T16:45:38.261Z,63.46
2023-05-22T16:48:41.241Z,65.63
2023-05-22T16:51:43.792Z,66.17
2023-05-22T16:54:46.840Z,65.52
2023-05-22T16:57:49.532Z,66.41
2023-05-22T17:00:53.126Z,67.56
2023-05-22T17:03:55.990Z,68.42
2023-05-22T17:06:58.959Z,70.32
2023-05-22T17:10:01.673Z,68.14
2023-05-22T17:13:04.902Z,69.56
2023-05-22T17:16:07.503Z,70.99
2023-05-22T17:19:10.584Z,69.60
2023-05-22T17:22:13.189Z,68.11
2023-05-22T17:25:16.222Z,69.62
2023-05-22T17:28:18.897Z,69.67
2023-05-22T17:31:22.861Z,70.93
2023-05-22T17:34:25.409Z,70.81
2023-05-22T17:37:28.232Z,72.94
2023-05-22T17:43:38.270Z,73.41
2023-05-22T17:46:41.341Z,72.44
2023-05-22T17:49:44.346Z,72.97
2023-05-22T17:52:46.906Z,73.31
2023-05-22T17:55:52.318Z,74.63
2023-05-22T17:58:55.205Z,75.49
2023-05-22T18:01:58.109Z,75.82
2023-05-22T18:05:01.143Z,76.56
2023-05-22T18:08:03.789Z,76.35
2023-05-22T18:11:06.875Z,76.78
2023-05-22T18:14:09.481Z,76.46
2023-05-22T18:17:12.576Z,76.64
2023-05-22T18:20:16.792Z,76.73
2023-05-22T18:23:20.666Z,75.74
2023-05-22T18:26:23.326Z,77.08
2023-05-22T18:29:26.417Z,76.73
2023-05-22T18:32:29.159Z,76.36
2023-05-22T18:35:32.021Z,77.03
2023-05-22T18:38:34.552Z,76.88
2023-05-22T18:41:37.498Z,77.75
2023-05-22T18:44:40.620Z,78.84
2023-05-22T18:47:43.626Z,79.47
2023-05-22T18:50:46.378Z,79.20
2023-05-22T18:53:51.580Z,78.72
2023-05-22T18:56:54.268Z,78.37
2023-05-22T18:59:58.810Z,79.31
2023-05-22T19:03:02.090Z,79.62
2023-05-22T19:06:05.257Z,79.90
2023-05-22T19:09:11.994Z,80.12
2023-05-22T19:12:15.066Z,80.36
2023-05-22T19:15:17.679Z,80.38
2023-05-22T19:18:20.797Z,81.26
2023-05-22T19:21:23.401Z,82.01
2023-05-22T19:24:26.690Z,82.50
2023-05-22T19:27:29.287Z,82.97
2023-05-22T19:30:32.515Z,83.27
2023-05-22T19:33:35.093Z,83.97
2023-05-22T19:36:38.076Z,83.50
2023-05-22T19:39:41.180Z,83.36
2023-05-22T19:42:44.243Z,83.19
2023-05-22T19:45:47.178Z,82.73
2023-05-22T19:48:50.538Z,82.90
2023-05-22T19:51:56.004Z,83.36
2023-05-22T19:54:59.360Z,82.98
2023-05-22T19:58:02.076Z,82.99
2023-05-22T20:01:05.337Z,83.10
2023-05-22T20:04:08.305Z,83.17
2023-05-22T20:07:11.010Z,83.40
2023-05-22T20:10:14.531Z,84.39
2023-05-22T20:13:17.614Z,84.63
2023-05-22T20:16:20.736Z,85.09
2023-05-22T20:19:24.429Z,85.17
2023-05-22T20:22:27.978Z,85.46
2023-05-22T20:25:30.731Z,85.09
2023-05-22T20:28:33.732Z,85.09
2023-05-22T20:31:36.420Z,85.19
2023-05-22T20:34:40.106Z,85.76
2023-05-22T20:37:42.826Z,86.27
2023-05-22T20:40:47.913Z,86.41
2023-05-22T20:43:50.537Z,86.68
2023-05-22T20:46:54.045Z,86.57
2023-05-22T20:49:56.805Z,86.56
2023-05-22T20:53:00.757Z,86.67
2023-05-22T20:56:03.529Z,86.72
2023-05-22T20:59:06.347Z,86.65
2023-05-22T21:02:09.318Z,86.04
2023-05-22T21:05:12.188Z,86.09
2023-05-22T21:08:15.018Z,85.43
2023-05-22T21:11:18.173Z,85.19
2023-05-22T21:14:20.700Z,85.05
2023-05-22T21:17:24.674Z,85.20
2023-05-22T21:20:27.631Z,86.21
2023-05-22T21:23:30.583Z,86.15
2023-05-22T21:26:33.409Z,85.38
2023-05-22T21:29:36.429Z,85.33
2023-05-22T21:32:39.159Z,84.07
2023-05-22T21:35:42.269Z,83.21
2023-05-22T21:38:45.290Z,86.66
2023-05-22T21:41:49.864Z,86.88
2023-05-22T21:44:53.014Z,86.22
2023-05-22T21:47:56.166Z,85.80
2023-05-22T21:50:58.871Z,85.82
2023-05-22T21:54:01.830Z,86.06
2023-05-22T21:57:04.543Z,86.35
2023-05-22T22:00:08.064Z,86.44
2023-05-22T22:03:10.698Z,86.52
2023-05-22T22:06:13.876Z,87.13
2023-05-22T22:09:16.487Z,86.95
2023-05-22T22:12:19.282Z,86.42
2023-05-22T22:15:22.211Z,86.11
2023-05-22T22:18:25.070Z,87.20
2023-05-22T22:21:28.241Z,86.99
2023-05-22T22:24:31.152Z,86.69
2023-05-22T22:27:34.049Z,86.09
2023-05-22T22:30:36.935Z,86.40
2023-05-22T22:33:39.507Z,86.23
2023-05-22T22:36:42.437Z,85.79
2023-05-22T22:39:44.988Z,86.10
2023-05-22T22:42:47.957Z,86.41
2023-05-22T22:45:50.570Z,86.78
2023-05-22T22:48:54.477Z,88.05
2023-05-22T22:51:57.557Z,88.89
2023-05-22T22:55:00.683Z,88.23
2023-05-22T22:58:03.652Z,87.67
2023-05-22T23:01:06.664Z,87.66
2023-05-22T23:04:09.463Z,87.65
2023-05-22T23:07:12.437Z,88.90
2023-05-22T23:10:16.621Z,87.89
2023-05-22T23:13:19.602Z,87.16
2023-05-22T23:16:22.946Z,87.34
2023-05-22T23:19:26.375Z,87.37
2023-05-22T23:22:29.229Z,87.20
2023-05-22T23:25:32.112Z,87.37
2023-05-22T23:28:34.714Z,87.34
2023-05-22T23:31:37.535Z,88.15
2023-05-22T23:34:42.276Z,88.40
2023-05-22T23:37:45.331Z,90.90
2023-05-22T23:40:47.885Z,91.18
2023-05-22T23:43:50.720Z,90.89
2023-05-22T23:46:53.447Z,91.28
2023-05-22T23:49:56.774Z,91.56
2023-05-22T23:52:59.380Z,91.47
2023-05-22T23:56:02.878Z,91.11
2023-05-22T23:59:05.496Z,90.64
